Thunder radar more information blitzortung!


Radar de pluja more information rain snow radar


Visita la nostra xarxa de llocs de meteo:

Template documentation
and downloads

And another site



No particular awareness of the weather is required.    There are no Weather-warnings

Pagina Historial Weather Underground text

Diari Resum Octubre 25, 2017 Unitats:  Mètric    Imperial   Tant
« Previous Dia
SegĂźent Dia »
Diari Setmana Mensual Anual Personalitzada
  Maxima: Minima: Media:
Temperatura: -17.8 °C -11.7 °C -7.5 °C
Punt de rosada: -17.8 °C -14.1 °C -11.2 °C
Humitat: Humidity % 51 % 66 %
Wind Speed: 0 km/h 0 km/h 6 km/h
RĂ fegues de vent: 0 km/h - -
Vent:- - SSE
Pression baro: 0 hPa 34635.4 hPa -
Precipitacions: 0 mm    
Historical Graphs
 
 
Dades de taula per Octubre 25, 2017
Temps Temperatura Punt de rosada Pression baro Vent Wind Speed RĂ fegues de vent Humitat Rainfall Rate (Hourly)
-17.8 °C -17.8 °C 0 hPa Calm     Humidity % 0 mm
00:04 -9.8 °C -13.7 °C 34669.3 hPa Calm     63 % 0 mm
00:05 -11.1 °C -13.7 °C 34669.3 hPa Calm   2.6 km/h 73 % 0 mm
00:15 -11.1 °C -13.8 °C 34669.3 hPa Calm     72 % 0 mm
00:25 -10.9 °C -13.7 °C 34669.3 hPa West 2.6 km/h 5.1 km/h 71 % 0 mm
00:45 -10.9 °C -13.7 °C 34635.4 hPa Calm   5.1 km/h 71 % 0 mm
00:55 -10.9 °C -13.6 °C 34635.4 hPa Calm   2.6 km/h 72 % 0 mm
01:05 -11 °C -13.7 °C 34635.4 hPa Calm     72 % 0 mm
01:15 -11.1 °C -13.8 °C 34669.3 hPa Calm     72 % 0 mm
01:25 -11.2 °C -13.8 °C 34669.3 hPa Calm     73 % 0 mm
01:35 -11.3 °C -13.9 °C 34669.3 hPa Calm     73 % 0 mm
01:45 -11.3 °C -13.9 °C 34669.3 hPa Calm     73 % 0 mm
01:55 -11.3 °C -13.9 °C 34669.3 hPa WNW 5.1 km/h 5.1 km/h 73 % 0 mm
02:05 -11.5 °C -14 °C 34669.3 hPa WSW 2.6 km/h 5.1 km/h 74 % 0 mm
02:15 -11.5 °C -14 °C 34669.3 hPa SW 2.6 km/h 5.1 km/h 74 % 0 mm
02:25 -11.5 °C -14 °C 34669.3 hPa SW 5.1 km/h 7.7 km/h 74 % 0 mm
02:35 -11.5 °C -13.9 °C 34669.3 hPa Calm   2.6 km/h 75 % 0 mm
02:45 -11.5 °C -13.9 °C 34669.3 hPa Calm     75 % 0 mm
02:55 -11.5 °C -13.9 °C 34669.3 hPa Calm   2.6 km/h 75 % 0 mm
03:05 -11.4 °C -13.8 °C 34635.4 hPa NW 2.6 km/h 5.1 km/h 75 % 0 mm
03:15 -11.6 °C -14 °C 34669.3 hPa West 2.6 km/h 5.1 km/h 75 % 0 mm
03:25 -11.6 °C -14 °C 34669.3 hPa West 2.6 km/h 5.1 km/h 75 % 0 mm
03:35 -11.7 °C -14.1 °C 34669.3 hPa West 5.1 km/h 5.1 km/h 75 % 0 mm
03:45 -11.6 °C -13.8 °C 34669.3 hPa Calm   5.1 km/h 76 % 0 mm
03:55 -11.4 °C -13.7 °C 34669.3 hPa WSW 2.6 km/h 2.6 km/h 76 % 0 mm
04:05 -11.2 °C -13.6 °C 34703.1 hPa WSW 2.6 km/h 5.1 km/h 75 % 0 mm
04:15 -11.1 °C -13.5 °C 34703.1 hPa SW 2.6 km/h 5.1 km/h 75 % 0 mm
04:25 -10.8 °C -13.2 °C 34703.1 hPa Calm   2.6 km/h 75 % 0 mm
04:35 -10.2 °C -12.7 °C 34703.1 hPa Calm   5.1 km/h 74 % 0 mm
04:45 -9.9 °C -12.6 °C 34740.4 hPa NE 2.6 km/h 5.1 km/h 73 % 0 mm
04:55 -9.9 °C -12.7 °C 34740.4 hPa NE 7.7 km/h 10.3 km/h 72 % 0 mm
05:05 -9.8 °C -12.7 °C 34740.4 hPa NE 5.1 km/h 7.7 km/h 71 % 0 mm
10:12 -9.5 °C -12.5 °C 34740.4 hPa NNE 9 km/h 9 km/h 70 % 0 mm
10:17 -9.3 °C -12.3 °C 34740.4 hPa NNE 9 km/h 9 km/h 70 % 0 mm
10:22 -9.2 °C -12.3 °C 34740.4 hPa ENE 6 km/h 6 km/h 70 % 0 mm
10:24 -9.1 °C -12.1 °C 34740.4 hPa NNE 9 km/h 9 km/h 70 % 0 mm
10:29 -8.9 °C -12.1 °C 34740.4 hPa NE 9 km/h 9 km/h 69 % 0 mm
10:34 -8.8 °C -11.9 °C 34740.4 hPa NE 9 km/h 9 km/h 69 % 0 mm
10:39 -8.6 °C -11.9 °C 34740.4 hPa NNE 5.1 km/h 5.1 km/h 68 % 0 mm
10:44 -8.6 °C -11.8 °C 34740.4 hPa NE 9 km/h 9 km/h 68 % 0 mm
10:49 -8.6 °C -11.8 °C 34740.4 hPa NW 11.9 km/h 11.9 km/h 68 % 0 mm
10:54 -8.4 °C -11.8 °C 34740.4 hPa NE 11.9 km/h 11.9 km/h 67 % 0 mm
10:59 -8.4 °C -11.9 °C 34740.4 hPa NNE 15 km/h 15 km/h 67 % 0 mm
11:04 -8.3 °C -11.9 °C 34740.4 hPa ENE 11.9 km/h 11.9 km/h 66 % 0 mm
11:09 -8.1 °C -11.7 °C 34703.1 hPa NNE 9 km/h 9 km/h 66 % 0 mm
11:14 -7.9 °C -11.6 °C 34703.1 hPa ENE 9 km/h 9 km/h 65 % 0 mm
11:19 -7.9 °C -11.6 °C 34703.1 hPa NNE 9 km/h 9 km/h 65 % 0 mm
11:24 -7.8 °C -11.6 °C 34740.4 hPa ENE 6 km/h 6 km/h 64 % 0 mm
11:29 -7.6 °C -11.4 °C 34740.4 hPa ENE 9.8 km/h 9.8 km/h 64 % 0 mm
11:34 -7.7 °C -11.6 °C 34740.4 hPa NNW 9 km/h 9 km/h 64 % 0 mm
11:39 -7.5 °C -11.3 °C 34740.4 hPa NNE 6 km/h 6 km/h 64 % 0 mm
11:44 -7.2 °C -11.3 °C 34740.4 hPa NNW 3.7 km/h 3.7 km/h 62 % 0 mm
11:49 -7 °C -11.2 °C 34740.4 hPa NNE 6 km/h   62 % 0 mm
11:54 -6.9 °C -11.1 °C 34740.4 hPa NW 6 km/h 6 km/h 62 % 0 mm
11:59 -6.8 °C -11 °C 34740.4 hPa NNE 8 km/h 8 km/h 62 % 0 mm
12:04 -6.8 °C -11.1 °C 34740.4 hPa NE 6.3 km/h 6.3 km/h 61 % 0 mm
12:09 -6.6 °C -11 °C 34740.4 hPa SW 6 km/h   60 % 0 mm
12:14 -6.6 °C -11.2 °C 34740.4 hPa NE 6.3 km/h 6.3 km/h 59 % 0 mm
12:19 -6.7 °C -11.3 °C 34740.4 hPa ESE 11.9 km/h 11.9 km/h 59 % 0 mm
12:24 -6.6 °C -11.3 °C 34740.4 hPa ENE 11.9 km/h 11.9 km/h 58 % 0 mm
12:29 -6.4 °C -11.2 °C 34740.4 hPa East 9.3 km/h 9.3 km/h 58 % 0 mm
12:34 -6.6 °C -11.3 °C 34740.4 hPa ENE 9.8 km/h 9.8 km/h 58 % 0 mm
12:39 -6.5 °C -11.2 °C 34740.4 hPa East 6 km/h 6 km/h 58 % 0 mm
12:44 -6.3 °C -11.1 °C 34740.4 hPa NNE 11.9 km/h 11.9 km/h 58 % 0 mm
12:49 -6.3 °C -11.1 °C 34740.4 hPa ENE 9 km/h 9 km/h 58 % 0 mm
12:54 -6.1 °C -11 °C 34740.4 hPa ESE 6 km/h 7.6 km/h 57 % 0 mm
12:59 -6.2 °C -11.1 °C 34740.4 hPa NE 7.6 km/h 7.6 km/h 57 % 0 mm
13:04 -6.2 °C -11.2 °C 34740.4 hPa ENE 11.9 km/h 11.9 km/h 56 % 0 mm
13:14 -5.9 °C -11.1 °C 34740.4 hPa ESE 9 km/h 9 km/h 55 % 0 mm
13:19 -5.9 °C -11.1 °C 34740.4 hPa East 9 km/h 9 km/h 55 % 0 mm
13:24 -5.9 °C -11.1 °C 34740.4 hPa NE 11.9 km/h 11.9 km/h 55 % 0 mm
13:29 -5.9 °C -11.3 °C 34740.4 hPa NE 11.9 km/h 11.9 km/h 54 % 0 mm
13:34 -5.7 °C -11.1 °C 34740.4 hPa ESE 7.6 km/h 7.6 km/h 54 % 0 mm
13:39 -5.7 °C -11.1 °C 34703.1 hPa ENE 6 km/h 6 km/h 54 % 0 mm
13:44 -5.6 °C -11.1 °C 34703.1 hPa East 9.8 km/h 9.8 km/h 53 % 0 mm
13:54 -5.4 °C -10.9 °C 34703.1 hPa NNW 9 km/h 9 km/h 54 % 0 mm
13:59 -5.3 °C -10.9 °C 34703.1 hPa SE 9 km/h 9 km/h 53 % 0 mm
14:04 -5.2 °C -10.8 °C 34703.1 hPa WNW 6.8 km/h 6.8 km/h 53 % 0 mm
14:09 -5.3 °C -11 °C 34669.3 hPa ESE 9 km/h 9 km/h 52 % 0 mm
14:14 -5.3 °C -11 °C 34669.3 hPa SE 11.9 km/h 11.9 km/h 52 % 0 mm
14:19 -5.1 °C -10.7 °C 34669.3 hPa East 6.8 km/h 6.8 km/h 53 % 0 mm
14:24 -5.2 °C -11 °C 34669.3 hPa NW 9 km/h 9 km/h 52 % 0 mm
14:29 -5.1 °C -10.9 °C 34669.3 hPa ESE 11.9 km/h 11.9 km/h 52 % 0 mm
14:34 -5.2 °C -10.8 °C 34669.3 hPa East 6.3 km/h 6.3 km/h 53 % 0 mm
14:39 -5.1 °C -10.9 °C 34669.3 hPa SSE 9.8 km/h 9.8 km/h 52 % 0 mm
14:44 -4.9 °C -10.7 °C 34669.3 hPa ESE 9 km/h 9 km/h 52 % 0 mm
14:49 -4.9 °C -10.7 °C 34669.3 hPa West 9.3 km/h 9.3 km/h 52 % 0 mm
14:51 -4.9 °C -10.7 °C 34669.3 hPa WSW 9 km/h 9 km/h 52 % 0 mm
14:56 -4.7 °C -10.5 °C 34669.3 hPa ESE 6.3 km/h 6.3 km/h 52 % 0 mm
15:01 -4.8 °C -10.7 °C 34669.3 hPa SSE 11.9 km/h 11.9 km/h 51 % 0 mm
15:06 -4.8 °C -10.7 °C 34669.3 hPa ESE 11.9 km/h 11.9 km/h 51 % 0 mm
15:11 -4.9 °C -10.9 °C 34669.3 hPa ESE 11.9 km/h 11.9 km/h 51 % 0 mm
15:16 -4.9 °C -10.9 °C 34669.3 hPa ESE 6 km/h 6.3 km/h 51 % 0 mm
15:21 -4.9 °C -10.8 °C 34669.3 hPa East 9 km/h 9 km/h 51 % 0 mm
15:31 -4.8 °C -10.8 °C 34669.3 hPa East 9.3 km/h 9.3 km/h 51 % 0 mm
15:36 -4.8 °C -10.8 °C 34669.3 hPa East 11.9 km/h 11.9 km/h 51 % 0 mm
15:41 -4.8 °C -10.8 °C 34703.1 hPa South 9 km/h 9 km/h 51 % 0 mm
15:46 -4.8 °C -10.7 °C 34703.1 hPa ESE 11.9 km/h 11.9 km/h 51 % 0 mm
15:51 -4.8 °C -10.8 °C 34703.1 hPa South 11.9 km/h 11.9 km/h 51 % 0 mm
15:56 -4.8 °C -10.7 °C 34669.3 hPa East 8 km/h 8 km/h 51 % 0 mm
16:01 -4.7 °C -10.6 °C 34669.3 hPa ENE 3.7 km/h   51 % 0 mm
16:06 -4.8 °C -10.7 °C 34669.3 hPa ESE 15 km/h 15 km/h 51 % 0 mm
16:11 -4.7 °C -10.7 °C 34669.3 hPa SE 9 km/h 9 km/h 51 % 0 mm
16:16 -4.7 °C -10.6 °C 34669.3 hPa ENE 11.9 km/h 11.9 km/h 51 % 0 mm
16:21 -4.8 °C -10.6 °C 34669.3 hPa SW 15 km/h 15 km/h 52 % 0 mm
16:26 -4.8 °C -10.4 °C 34669.3 hPa ENE 9.3 km/h 9.3 km/h 53 % 0 mm
16:31 -4.8 °C -10.4 °C 34669.3 hPa ESE 15.3 km/h 15.3 km/h 53 % 0 mm
16:36 -4.9 °C -10.4 °C 34669.3 hPa ENE 17.9 km/h 17.9 km/h 54 % 0 mm
16:41 -4.9 °C -10.2 °C 34669.3 hPa NNE 9 km/h 9 km/h 55 % 0 mm
16:46 -5 °C -10.2 °C 34669.3 hPa East 15.3 km/h 15.3 km/h 56 % 0 mm
16:51 -5.1 °C -10.2 °C 34669.3 hPa SE 17.9 km/h 17.9 km/h 56 % 0 mm
16:56 -5.1 °C -10.1 °C 34669.3 hPa ESE 15 km/h 15 km/h 57 % 0 mm
17:01 -5.2 °C -10.1 °C 34669.3 hPa East 15 km/h 15 km/h 58 % 0 mm
17:06 -5.2 °C -10.1 °C 34669.3 hPa East 15 km/h 15 km/h 58 % 0 mm
17:11 -5.3 °C -9.9 °C 34669.3 hPa ENE 17.9 km/h 17.9 km/h 59 % 0 mm
17:16 -5.4 °C -10.1 °C 34669.3 hPa ESE 15 km/h 15 km/h 59 % 0 mm
17:21 -5.4 °C -9.9 °C 34669.3 hPa ESE 16.1 km/h 16.1 km/h 60 % 0 mm
17:26 -5.4 °C -9.8 °C 34669.3 hPa ESE 15 km/h 15 km/h 61 % 0 mm
17:31 -5.4 °C -9.8 °C 34669.3 hPa ESE 15 km/h 15 km/h 61 % 0 mm
17:36 -5.5 °C -9.9 °C 34669.3 hPa SE 15 km/h 15 km/h 61 % 0 mm
17:41 -5.5 °C -9.7 °C 34669.3 hPa SE 9.3 km/h 9.3 km/h 62 % 0 mm
17:46 -5.5 °C -9.7 °C 34669.3 hPa East 11.9 km/h 11.9 km/h 62 % 0 mm
17:51 -5.6 °C -9.7 °C 34669.3 hPa East 9.8 km/h 9.8 km/h 63 % 0 mm
17:56 -5.6 °C -9.7 °C 34669.3 hPa ESE 12.7 km/h 12.7 km/h 63 % 0 mm
18:01 -5.6 °C -9.7 °C 34669.3 hPa SW 3.7 km/h 3.7 km/h 63 % 0 mm
18:06 -5.4 °C -9.6 °C 34669.3 hPa West 6 km/h   62 % 0 mm
18:11 -5.4 °C -9.6 °C 34669.3 hPa WSW 3.1 km/h 3.7 km/h 62 % 0 mm
18:21 -5.4 °C -9.6 °C 34669.3 hPa NW 6 km/h 6 km/h 62 % 0 mm
18:26 -5.5 °C -9.7 °C 34635.4 hPa South 6 km/h 6 km/h 62 % 0 mm
18:31 -5.6 °C -9.8 °C 34635.4 hPa NW 6 km/h 6 km/h 62 % 0 mm
18:36 -5.8 °C -9.8 °C 34635.4 hPa NNE 6 km/h   64 % 0 mm
18:41 -5.9 °C -9.9 °C 34669.3 hPa NNE 4.2 km/h 4.2 km/h 64 % 0 mm
18:46 -6.1 °C -9.8 °C 34669.3 hPa NNE 6.3 km/h   65 % 0 mm
18:51 -6.2 °C -10 °C 34669.3 hPa SW 9 km/h 9 km/h 65 % 0 mm
18:56 -6.2 °C -10 °C 34669.3 hPa West 3.1 km/h   65 % 0 mm
19:01 -6.3 °C -10.1 °C 34669.3 hPa West 6.3 km/h 6.3 km/h 65 % 0 mm
19:06 -6.4 °C -10.2 °C 34669.3 hPa SW 6 km/h 6 km/h 65 % 0 mm
19:11 -6.5 °C -10.3 °C 34669.3 hPa WSW 3.7 km/h   65 % 0 mm
19:16 -6.6 °C -10.4 °C 34669.3 hPa WSW 6 km/h 6 km/h 65 % 0 mm
19:21 -6.7 °C -10.2 °C 34669.3 hPa West 4.2 km/h 4.2 km/h 67 % 0 mm
19:26 -6.8 °C -10.3 °C 34669.3 hPa WSW 6.8 km/h 6.8 km/h 67 % 0 mm
19:31 -6.8 °C -10.3 °C 34669.3 hPa WSW 6 km/h 6 km/h 67 % 0 mm
19:36 -6.9 °C -10.3 °C 34669.3 hPa NW 3.1 km/h   68 % 0 mm
19:41 -7 °C -10.2 °C 34703.1 hPa Calm     69 % 0 mm
19:46 -7.1 °C -10.2 °C 34703.1 hPa Calm     70 % 0 mm
19:51 -7.2 °C -10.3 °C 34703.1 hPa Calm     70 % 0 mm
19:56 -7.3 °C -10.2 °C 34703.1 hPa Calm     72 % 0 mm
20:01 -7.3 °C -10.2 °C 34703.1 hPa WSW 5.6 km/h   72 % 0 mm
20:06 -7.4 °C -10.2 °C 34703.1 hPa WSW 3.7 km/h 3.7 km/h 72 % 0 mm
20:11 -7.4 °C -10.3 °C 34740.4 hPa WSW 6 km/h 6 km/h 72 % 0 mm
20:16 -7.5 °C -10.2 °C 34740.4 hPa Calm     73 % 0 mm
20:21 -7.6 °C -10.2 °C 34740.4 hPa NW 3.1 km/h 3.1 km/h 74 % 0 mm
20:26 -7.6 °C -10.2 °C 34740.4 hPa NW 3.1 km/h   74 % 0 mm
20:31 -7.6 °C -10.2 °C 34740.4 hPa Calm     74 % 0 mm
20:36 -7.7 °C -10.3 °C 34740.4 hPa Calm     74 % 0 mm
20:41 -7.7 °C -10.3 °C 34740.4 hPa Calm     74 % 0 mm
20:46 -7.7 °C -10.2 °C 34740.4 hPa Calm     75 % 0 mm
20:51 -7.8 °C -10.4 °C 34740.4 hPa Calm     74 % 0 mm
20:56 -7.8 °C -10.3 °C 34740.4 hPa Calm     75 % 0 mm
21:01 -7.8 °C -10.3 °C 34740.4 hPa Calm     75 % 0 mm
21:06 -7.9 °C -10.3 °C 34740.4 hPa NW 3.1 km/h 3.1 km/h 76 % 0 mm
21:11 -8 °C -10.4 °C 34740.4 hPa Calm     76 % 0 mm
21:16 -8.1 °C -10.6 °C 34740.4 hPa NW 3.1 km/h   75 % 0 mm
21:21 -8.1 °C -10.5 °C 34740.4 hPa Calm     76 % 0 mm
21:26 -8.1 °C -10.5 °C 34740.4 hPa Calm     76 % 0 mm
21:31 -8.2 °C -10.4 °C 34740.4 hPa Calm     77 % 0 mm
21:36 -8.2 °C -10.5 °C 34740.4 hPa Calm     77 % 0 mm
21:41 -8.2 °C -10.5 °C 34740.4 hPa Calm     77 % 0 mm
21:46 -8.3 °C -10.5 °C 34740.4 hPa Calm     77 % 0 mm
21:51 -8.3 °C -10.6 °C 34740.4 hPa Calm     77 % 0 mm
21:56 -8.4 °C -10.4 °C 34740.4 hPa Calm     79 % 0 mm
22:01 -8.4 °C -10.5 °C 34740.4 hPa Calm     79 % 0 mm
22:06 -8.4 °C -10.5 °C 34740.4 hPa Calm     79 % 0 mm
22:11 -8.4 °C -10.5 °C 34740.4 hPa Calm     79 % 0 mm
22:16 -8.4 °C -10.5 °C 34740.4 hPa Calm     79 % 0 mm
22:21 -8.5 °C -10.4 °C 34740.4 hPa Calm     80 % 0 mm
22:26 -8.6 °C -10.6 °C 34740.4 hPa Calm     79 % 0 mm
22:31 -8.6 °C -10.5 °C 34740.4 hPa NW 3.1 km/h   80 % 0 mm
22:36 -8.6 °C -10.5 °C 34740.4 hPa WNW 6 km/h 6 km/h 80 % 0 mm
22:41 -8.6 °C -10.5 °C 34703.1 hPa WNW 3.1 km/h   80 % 0 mm
23:08 -8.8 °C -10.6 °C 34740.4 hPa Calm     82 % 0 mm
23:13 -8.9 °C -10.6 °C 34740.4 hPa Calm     82 % 0 mm
23:18 -8.9 °C -10.7 °C 34740.4 hPa Calm     82 % 0 mm
23:23 -8.9 °C -10.7 °C 34740.4 hPa Calm     82 % 0 mm
23:28 -9 °C -10.7 °C 34740.4 hPa Calm     82 % 0 mm
23:33 -9.1 °C -10.8 °C 34740.4 hPa Calm     82 % 0 mm
23:38 -9.1 °C -10.7 °C 34740.4 hPa Calm     83 % 0 mm
23:43 -9.1 °C -10.7 °C 34740.4 hPa Calm     83 % 0 mm
23:48 -9.2 °C -10.8 °C 34740.4 hPa Calm     83 % 0 mm
23:53 -9.2 °C -10.8 °C 34740.4 hPa Calm     83 % 0 mm
23:58 -9.3 °C -10.9 °C 34740.4 hPa Calm     83 % 0 mm
Meteo Sesrovires
Elogis d' Weather Underground - 1.5 mb

Guio original per  Jim McMurry - jmcmurry@mwt.net Adaptat per a la plantilla per  Wim van der Kuil - Leuven-Template.eu

Trobareu la nostra informacio del temps tambe a:

Weather Underground

AWEKAS